createdAt,value
2019-01-06T00:02:24.847Z,85.84
2019-01-06T00:05:17.474Z,85.82
2019-01-06T00:08:05.967Z,85.85
2019-01-06T00:10:58.706Z,85.86
2019-01-06T00:13:51.396Z,85.88
2019-01-06T00:16:39.696Z,85.87
2019-01-06T00:19:33.484Z,85.86
2019-01-06T00:22:27.298Z,85.84
2019-01-06T00:25:35.489Z,85.84
2019-01-06T00:28:25.231Z,85.85
2019-01-06T00:31:27.182Z,85.85
2019-01-06T00:34:32.314Z,85.87
2019-01-06T00:37:35.343Z,85.89
2019-01-06T00:40:31.355Z,85.89
2019-01-06T00:43:16.013Z,85.90
2019-01-06T00:46:24.127Z,85.90
2019-01-06T00:49:11.409Z,85.92
2019-01-06T00:52:01.101Z,85.89
2019-01-06T00:54:45.078Z,85.90
2019-01-06T00:57:33.711Z,85.89
2019-01-06T01:00:22.098Z,85.88
2019-01-06T01:03:30.267Z,85.87
2019-01-06T01:06:26.496Z,85.90
2019-01-06T01:09:53.087Z,85.93
2019-01-06T01:12:49.151Z,85.93
2019-01-06T01:15:40.963Z,85.92
2019-01-06T01:18:33.932Z,85.92
2019-01-06T01:21:34.560Z,85.91
2019-01-06T01:24:30.433Z,85.90
2019-01-06T01:27:29.377Z,85.94
2019-01-06T01:30:32.007Z,85.94
2019-01-06T01:33:20.188Z,85.96
2019-01-06T01:43:56.353Z,85.93
2019-01-06T01:50:21.694Z,85.95
2019-01-06T01:53:20.773Z,85.97
2019-01-06T01:56:13.239Z,85.99
2019-01-06T01:59:12.284Z,86.02
2019-01-06T02:02:17.322Z,86.02
2019-01-06T02:05:06.115Z,86.03
2019-01-06T02:08:08.072Z,86.08
2019-01-06T02:10:55.026Z,86.05
2019-01-06T02:13:47.596Z,86.11
2019-01-06T02:16:39.315Z,86.12
2019-01-06T02:19:28.926Z,86.14
2019-01-06T02:22:36.864Z,86.17
2019-01-06T02:25:25.656Z,86.14
2019-01-06T02:28:13.355Z,86.19
2019-01-06T02:31:06.074Z,86.18
2019-01-06T02:33:55.704Z,86.18
2019-01-06T02:37:07.886Z,86.21
2019-01-06T02:40:50.231Z,86.21
2019-01-06T02:47:12.277Z,86.21
2019-01-06T02:50:13.438Z,86.21
2019-01-06T02:53:14.426Z,86.24
2019-01-06T02:56:39.148Z,86.24
2019-01-06T02:59:52.289Z,86.25
2019-01-06T03:02:50.649Z,86.24
2019-01-06T03:05:49.414Z,86.28
2019-01-06T03:08:47.479Z,86.28
2019-01-06T03:11:31.274Z,86.30
2019-01-06T03:14:17.798Z,86.30
2019-01-06T03:17:06.091Z,86.30
2019-01-06T03:19:55.841Z,86.31
2019-01-06T03:22:44.666Z,86.32
2019-01-06T03:25:42.671Z,86.33
2019-01-06T03:28:52.360Z,86.35
2019-01-06T03:31:45.308Z,86.34
2019-01-06T03:34:33.862Z,86.33
2019-01-06T03:37:22.965Z,86.35
2019-01-06T03:40:12.876Z,86.36
2019-01-06T03:43:02.749Z,86.35
2019-01-06T03:45:58.617Z,86.36
2019-01-06T03:49:30.000Z,86.39
2019-01-06T03:52:24.659Z,86.41
2019-01-06T03:55:17.306Z,86.39
2019-01-06T03:58:33.416Z,86.41
2019-01-06T04:01:24.768Z,86.41
2019-01-06T04:04:18.376Z,86.41
2019-01-06T04:07:20.116Z,86.42
2019-01-06T04:10:12.750Z,86.43
2019-01-06T04:13:02.201Z,86.42
2019-01-06T04:16:01.699Z,86.44
2019-01-06T04:19:04.188Z,86.45
2019-01-06T04:21:53.875Z,86.45
2019-01-06T04:24:50.002Z,86.47
2019-01-06T04:27:40.381Z,86.45
2019-01-06T04:30:29.902Z,86.45
2019-01-06T04:33:22.963Z,86.46
2019-01-06T04:36:25.309Z,86.48
2019-01-06T04:39:13.846Z,86.49
2019-01-06T04:42:11.261Z,86.49
2019-01-06T04:45:01.250Z,86.50
2019-01-06T04:48:02.128Z,86.49
2019-01-06T04:50:58.008Z,86.51
2019-01-06T04:53:46.093Z,86.51
2019-01-06T04:56:44.831Z,86.52
2019-01-06T04:59:28.185Z,86.54
2019-01-06T05:02:33.890Z,86.53
2019-01-06T05:05:24.574Z,86.54
2019-01-06T05:08:17.599Z,86.54
2019-01-06T05:11:07.399Z,86.56
2019-01-06T05:14:03.939Z,86.56
2019-01-06T05:17:00.989Z,86.57
2019-01-06T05:19:49.153Z,86.58
2019-01-06T05:22:53.559Z,86.58
2019-01-06T05:25:46.939Z,86.59
2019-01-06T05:28:52.329Z,86.59
2019-01-06T05:31:48.971Z,86.59
2019-01-06T05:38:09.961Z,86.61
2019-01-06T05:41:24.147Z,86.61
2019-01-06T05:44:42.933Z,86.63
2019-01-06T05:51:39.017Z,86.64
2019-01-06T05:55:17.719Z,86.65
2019-01-06T05:58:07.757Z,86.64
2019-01-06T06:00:53.103Z,86.66
2019-01-06T06:03:41.946Z,86.68
2019-01-06T06:06:31.669Z,86.66
2019-01-06T06:09:20.265Z,86.66
2019-01-06T06:12:07.229Z,86.68
2019-01-06T06:14:56.562Z,86.69
2019-01-06T06:17:44.949Z,86.69
2019-01-06T06:20:33.678Z,86.70
2019-01-06T06:23:41.461Z,86.71
2019-01-06T06:26:35.685Z,86.72
2019-01-06T06:29:16.200Z,86.70
2019-01-06T06:32:05.878Z,86.71
2019-01-06T06:34:58.825Z,86.75
2019-01-06T06:38:03.614Z,86.75
2019-01-06T06:40:59.134Z,86.75
2019-01-06T06:43:47.441Z,86.75
2019-01-06T06:46:50.127Z,86.78
2019-01-06T06:49:38.846Z,86.76
2019-01-06T06:52:27.932Z,86.78
2019-01-06T06:55:16.223Z,86.78
2019-01-06T06:58:59.311Z,86.79
2019-01-06T07:02:17.462Z,86.79
2019-01-06T07:05:10.069Z,86.79
2019-01-06T07:07:57.171Z,86.83
2019-01-06T07:10:48.703Z,86.82
2019-01-06T07:13:41.202Z,86.80
2019-01-06T07:17:05.623Z,86.79
2019-01-06T07:20:00.577Z,86.82
2019-01-06T07:23:13.656Z,86.82
2019-01-06T07:25:44.114Z,86.83
2019-01-06T07:28:58.714Z,86.87
2019-01-06T07:31:52.853Z,86.86
2019-01-06T07:34:57.414Z,86.88
2019-01-06T07:37:53.429Z,86.88
2019-01-06T07:40:45.185Z,86.87
2019-01-06T07:43:33.827Z,86.88
2019-01-06T07:46:26.783Z,86.89
2019-01-06T07:49:17.229Z,86.90
2019-01-06T07:52:18.121Z,86.90
2019-01-06T07:56:05.209Z,86.89
2019-01-06T07:59:19.836Z,86.94
2019-01-06T08:02:12.422Z,86.92
2019-01-06T08:17:15.763Z,86.94
2019-01-06T08:20:32.902Z,86.96
2019-01-06T08:24:12.150Z,86.96
2019-01-06T08:44:27.658Z,87.04
2019-01-06T09:09:18.205Z,87.12
2019-01-06T09:12:31.880Z,87.14
2019-01-06T09:51:59.748Z,87.16
2019-01-06T10:04:13.176Z,87.18
2019-01-06T10:07:28.276Z,87.19
2019-01-06T10:24:57.356Z,87.21
2019-01-06T10:27:46.930Z,87.25
2019-01-06T11:02:45.006Z,87.30
2019-01-06T11:26:45.199Z,87.37
2019-01-06T11:29:37.407Z,87.35
2019-01-06T11:44:59.740Z,87.40
2019-01-06T11:47:41.873Z,87.39
2019-01-06T11:50:55.579Z,87.39
2019-01-06T12:02:55.975Z,87.44
2019-01-06T12:31:50.714Z,87.47
2019-01-06T12:34:40.488Z,87.51
2019-01-06T12:37:34.221Z,87.52
2019-01-06T12:40:25.910Z,87.49
2019-01-06T12:43:15.117Z,87.51
2019-01-06T12:46:05.996Z,87.51
2019-01-06T12:55:26.380Z,87.53
2019-01-06T12:58:40.997Z,87.53
2019-01-06T13:01:31.363Z,87.53
2019-01-06T13:07:14.505Z,87.54
2019-01-06T13:10:31.252Z,87.53
2019-01-06T13:49:07.878Z,87.57
2019-01-06T13:51:53.605Z,87.56
2019-01-06T13:54:50.703Z,87.57
2019-01-06T13:58:28.286Z,87.61
2019-01-06T14:16:22.637Z,87.61
2019-01-06T14:22:03.154Z,87.59
2019-01-06T14:24:57.466Z,87.57
2019-01-06T14:34:16.980Z,87.63
2019-01-06T14:40:19.541Z,87.62
2019-01-06T14:46:48.155Z,87.61
2019-01-06T14:49:43.459Z,87.62
2019-01-06T14:52:35.314Z,87.63
2019-01-06T14:55:50.451Z,87.64
2019-01-06T15:01:52.917Z,87.63
2019-01-06T15:04:49.048Z,87.63
2019-01-06T15:12:05.182Z,87.64
2019-01-06T15:15:00.831Z,87.65
2019-01-06T15:27:10.004Z,87.67
2019-01-06T15:30:49.366Z,87.67
2019-01-06T15:34:03.184Z,87.66
2019-01-06T15:36:56.417Z,87.67
2019-01-06T15:43:03.237Z,87.64
2019-01-06T15:46:31.345Z,87.65
2019-01-06T15:49:32.912Z,87.66
2019-01-06T16:19:12.426Z,87.69
2019-01-06T16:22:30.053Z,87.69
2019-01-06T16:28:59.160Z,87.70
2019-01-06T16:35:27.357Z,87.70
2019-01-06T16:38:19.551Z,87.69
2019-01-06T16:41:37.098Z,87.73
2019-01-06T16:50:57.263Z,87.72
2019-01-06T16:53:51.059Z,87.71
2019-01-06T16:57:01.604Z,87.71
2019-01-06T17:01:53.526Z,87.72
2019-01-06T17:04:00.617Z,87.74
2019-01-06T17:07:14.514Z,87.72
2019-01-06T17:10:52.786Z,87.72
2019-01-06T17:13:44.493Z,87.74
2019-01-06T17:16:56.740Z,87.71
2019-01-06T17:19:48.909Z,87.73
2019-01-06T17:23:04.917Z,87.71
2019-01-06T17:26:19.110Z,87.71
2019-01-06T17:30:32.291Z,87.73
2019-01-06T17:32:35.506Z,87.72
2019-01-06T17:35:48.206Z,87.74
2019-01-06T17:38:52.288Z,87.72
2019-01-06T17:41:46.028Z,87.73
2019-01-06T17:44:38.793Z,87.72
2019-01-06T17:48:18.754Z,87.73
2019-01-06T17:51:32.430Z,87.71
2019-01-06T18:04:56.624Z,87.73
2019-01-06T18:07:47.735Z,87.75
2019-01-06T18:10:24.869Z,87.76
2019-01-06T18:10:41.851Z,87.77
2019-01-06T18:13:35.140Z,87.74
2019-01-06T18:16:28.878Z,87.76
2019-01-06T18:19:26.131Z,87.76
2019-01-06T18:22:17.965Z,87.78
2019-01-06T18:25:15.478Z,87.78
2019-01-06T18:28:08.811Z,87.79
2019-01-06T18:31:19.829Z,87.77
2019-01-06T18:34:16.882Z,87.78
2019-01-06T18:37:12.658Z,87.79
2019-01-06T18:40:22.109Z,87.79
2019-01-06T18:43:36.364Z,87.80
2019-01-06T18:46:51.647Z,87.79
2019-01-06T18:50:27.728Z,87.80
2019-01-06T18:53:22.879Z,87.80
2019-01-06T18:56:59.931Z,87.80
2019-01-06T19:05:55.785Z,87.80
2019-01-06T19:08:46.763Z,87.79
2019-01-06T19:11:40.136Z,87.82
2019-01-06T19:14:32.714Z,87.82
2019-01-06T19:18:32.534Z,87.82
2019-01-06T19:21:09.326Z,87.81
2019-01-06T19:24:40.188Z,87.82
2019-01-06T19:27:31.167Z,87.82
2019-01-06T19:30:29.968Z,87.80
2019-01-06T19:33:37.835Z,87.83
2019-01-06T19:42:58.723Z,87.81
2019-01-06T19:46:11.527Z,87.82
2019-01-06T19:52:32.343Z,87.82
2019-01-06T19:55:37.842Z,87.84
2019-01-06T19:58:49.684Z,87.85
2019-01-06T20:02:17.872Z,87.86
2019-01-06T20:13:05.621Z,87.86
2019-01-06T20:17:48.688Z,87.84
2019-01-06T20:19:56.708Z,87.85
2019-01-06T20:22:49.286Z,87.87
2019-01-06T20:26:06.200Z,87.89
2019-01-06T20:29:18.787Z,87.88
2019-01-06T20:32:33.220Z,87.89
2019-01-06T20:35:25.381Z,87.90
2019-01-06T20:38:39.898Z,87.90
2019-01-06T20:41:58.679Z,87.89
2019-01-06T20:45:09.327Z,87.91
2019-01-06T20:48:25.934Z,87.89
2019-01-06T20:51:30.048Z,87.90
2019-01-06T20:54:32.579Z,87.87
2019-01-06T20:57:37.651Z,87.88
2019-01-06T21:05:06.474Z,87.90
2019-01-06T21:08:22.858Z,87.89
2019-01-06T21:11:39.183Z,87.90
2019-01-06T21:14:35.496Z,87.90
2019-01-06T21:18:07.682Z,87.89
2019-01-06T21:24:13.828Z,87.89
2019-01-06T21:31:15.715Z,87.93
2019-01-06T21:34:04.465Z,87.93
2019-01-06T21:39:56.808Z,87.93
2019-01-06T21:42:49.162Z,87.93
2019-01-06T21:45:39.502Z,87.90
2019-01-06T21:48:32.915Z,87.93
2019-01-06T21:51:21.763Z,87.92
2019-01-06T21:54:25.127Z,87.91
2019-01-06T21:57:19.253Z,87.94
2019-01-06T22:00:24.180Z,87.94
2019-01-06T22:03:20.705Z,87.91
2019-01-06T22:06:03.998Z,87.91
2019-01-06T22:08:56.610Z,87.93
2019-01-06T22:11:56.808Z,87.93
2019-01-06T22:19:12.167Z,87.94
2019-01-06T22:22:45.777Z,87.92
2019-01-06T22:26:03.659Z,87.93
2019-01-06T22:29:36.754Z,87.96
2019-01-06T22:32:59.789Z,87.96
2019-01-06T22:39:51.029Z,87.96
2019-01-06T22:42:43.628Z,87.99
2019-01-06T22:49:16.318Z,87.99
2019-01-06T22:55:45.025Z,88.01
2019-01-06T23:03:02.713Z,88.01
2019-01-06T23:05:54.213Z,87.98
2019-01-06T23:09:09.557Z,87.99
2019-01-06T23:12:25.096Z,87.98
2019-01-06T23:19:26.824Z,87.99
2019-01-06T23:25:24.325Z,88.01
2019-01-06T23:31:43.977Z,88.02
2019-01-06T23:39:08.020Z,88.01
2019-01-06T23:42:04.395Z,87.99
2019-01-06T23:48:00.820Z,87.96
2019-01-06T23:51:26.657Z,87.97
